createdAt,value
2022-12-22T00:00:00.455Z,9.1
2022-12-22T00:01:00.973Z,9.1
2022-12-22T00:02:02.119Z,9.1
2022-12-22T00:03:00.468Z,9.1
2022-12-22T00:04:00.567Z,9.2
2022-12-22T00:05:00.424Z,9.2
2022-12-22T00:06:00.360Z,9.0
2022-12-22T00:07:00.342Z,9.0
2022-12-22T00:08:00.478Z,9.1
2022-12-22T00:09:05.071Z,9.1
2022-12-22T00:10:00.324Z,9.1
2022-12-22T00:11:00.653Z,9.1
2022-12-22T00:12:00.340Z,9.1
2022-12-22T00:13:00.430Z,9.1
2022-12-22T00:14:00.390Z,9.1
2022-12-22T00:15:00.378Z,9.1
2022-12-22T00:16:00.344Z,9.2
2022-12-22T00:17:01.556Z,9.2
2022-12-22T00:18:00.628Z,9.0
2022-12-22T00:19:00.306Z,9.0
2022-12-22T00:20:00.309Z,9.0
2022-12-22T00:21:00.310Z,9.0
2022-12-22T00:22:00.944Z,8.9
2022-12-22T00:23:00.712Z,8.9
2022-12-22T00:24:00.337Z,9.0
2022-12-22T00:25:00.377Z,9.0
2022-12-22T00:26:00.354Z,9.0
2022-12-22T00:27:00.486Z,9.0
2022-12-22T00:28:01.269Z,9.0
2022-12-22T00:29:00.546Z,9.0
2022-12-22T00:30:01.490Z,9.0
2022-12-22T00:31:00.445Z,9.0
2022-12-22T00:32:01.265Z,9.0
2022-12-22T00:33:03.276Z,9.0
2022-12-22T00:34:00.377Z,9.0
2022-12-22T00:35:00.508Z,9.0
2022-12-22T00:36:01.308Z,9.0
2022-12-22T00:37:00.369Z,9.0
2022-12-22T00:38:00.307Z,9.1
2022-12-22T00:39:00.309Z,9.1
2022-12-22T00:40:00.518Z,9.1
2022-12-22T00:41:00.336Z,9.1
2022-12-22T00:42:00.329Z,9.1
2022-12-22T00:43:00.309Z,9.1
2022-12-22T00:44:00.338Z,8.9
2022-12-22T00:45:00.335Z,8.9
2022-12-22T00:46:02.429Z,9.1
2022-12-22T00:47:00.441Z,9.1
2022-12-22T00:48:00.645Z,9.1
2022-12-22T00:49:00.622Z,9.1
2022-12-22T00:50:00.405Z,9.2
2022-12-22T00:51:00.334Z,9.2
2022-12-22T00:52:00.748Z,9.2
2022-12-22T00:53:00.840Z,9.2
2022-12-22T00:54:00.463Z,9.1
2022-12-22T00:55:00.436Z,9.1
2022-12-22T00:56:02.438Z,9.1
2022-12-22T00:57:00.898Z,9.1
2022-12-22T00:58:01.572Z,9.1
2022-12-22T00:59:00.832Z,9.1
2022-12-22T01:00:00.538Z,9.1
2022-12-22T01:01:00.420Z,9.1
2022-12-22T01:02:00.450Z,9.2
2022-12-22T01:03:00.669Z,9.2
2022-12-22T01:04:00.345Z,9.2
2022-12-22T01:05:00.339Z,9.2
2022-12-22T01:06:01.296Z,9.3
2022-12-22T01:07:00.390Z,9.3
2022-12-22T01:08:00.672Z,9.2
2022-12-22T01:09:00.342Z,9.2
2022-12-22T01:10:00.430Z,9.1
2022-12-22T01:11:00.934Z,9.1
2022-12-22T01:12:01.820Z,9.2
2022-12-22T01:13:00.434Z,9.2
2022-12-22T01:14:00.350Z,9.2
2022-12-22T01:15:00.324Z,9.2
2022-12-22T01:16:00.427Z,9.1
2022-12-22T01:17:00.392Z,9.1
2022-12-22T01:18:00.356Z,9.2
2022-12-22T01:19:00.349Z,9.2
2022-12-22T01:20:00.334Z,9.1
2022-12-22T01:21:00.740Z,9.1
2022-12-22T01:22:00.345Z,9.1
2022-12-22T01:23:00.362Z,9.1
2022-12-22T01:24:00.308Z,9.2
2022-12-22T01:25:00.328Z,9.2
2022-12-22T01:26:00.339Z,9.2
2022-12-22T01:27:00.374Z,9.2
2022-12-22T01:28:00.680Z,9.2
2022-12-22T01:29:00.353Z,9.2
2022-12-22T01:30:00.617Z,9.2
2022-12-22T01:31:10.317Z,9.2
2022-12-22T01:32:00.310Z,9.3
2022-12-22T01:33:00.336Z,9.3
2022-12-22T01:34:00.320Z,9.2
2022-12-22T01:35:00.358Z,9.2
2022-12-22T01:36:00.311Z,9.2
2022-12-22T01:37:00.338Z,9.2
2022-12-22T01:38:00.362Z,9.2
2022-12-22T01:39:00.495Z,9.2
2022-12-22T01:40:00.371Z,9.2
2022-12-22T01:41:01.282Z,9.2
2022-12-22T01:42:00.365Z,9.2
2022-12-22T01:43:00.446Z,9.2
2022-12-22T01:44:00.352Z,9.2
2022-12-22T01:45:10.272Z,9.2
2022-12-22T01:46:10.279Z,9.2
2022-12-22T01:47:10.265Z,9.2
2022-12-22T01:48:00.313Z,9.3
2022-12-22T01:49:00.336Z,9.3
2022-12-22T01:50:00.378Z,9.2
2022-12-22T01:51:02.747Z,9.2
2022-12-22T01:52:00.691Z,9.1
2022-12-22T01:53:01.787Z,9.1
2022-12-22T01:54:00.416Z,9.2
2022-12-22T01:55:03.070Z,9.2
2022-12-22T01:56:00.616Z,9.3
2022-12-22T01:57:00.377Z,9.3
2022-12-22T01:58:00.529Z,9.2
2022-12-22T01:59:02.908Z,9.2
2022-12-22T02:00:00.519Z,9.3
2022-12-22T02:01:00.342Z,9.3
2022-12-22T02:02:04.472Z,9.2
2022-12-22T02:03:01.847Z,9.2
2022-12-22T02:04:00.597Z,9.1
2022-12-22T02:05:02.902Z,9.1
2022-12-22T02:06:07.631Z,9.1
2022-12-22T02:07:06.064Z,9.1
2022-12-22T02:08:01.383Z,9.1
2022-12-22T02:09:10.268Z,9.1
2022-12-22T02:10:10.309Z,9.1
2022-12-22T02:11:10.248Z,9.1
2022-12-22T02:12:00.329Z,9.3
2022-12-22T02:13:09.294Z,9.3
2022-12-22T02:14:01.335Z,9.3
2022-12-22T02:15:10.283Z,9.3
2022-12-22T02:16:00.352Z,9.2
2022-12-22T02:17:06.192Z,9.2
2022-12-22T02:18:06.611Z,9.4
2022-12-22T02:19:00.334Z,9.4
2022-12-22T02:20:08.055Z,9.4
2022-12-22T02:21:03.798Z,9.4
2022-12-22T02:22:10.254Z,9.3
2022-12-22T02:23:10.257Z,9.3
2022-12-22T02:24:01.367Z,9.3
2022-12-22T02:25:10.292Z,9.3
2022-12-22T02:26:04.410Z,9.4
2022-12-22T02:27:01.233Z,9.4
2022-12-22T02:28:00.730Z,9.4
2022-12-22T02:29:01.991Z,9.4
2022-12-22T02:30:02.393Z,9.3
2022-12-22T02:31:00.438Z,9.3
2022-12-22T02:32:00.423Z,9.2
2022-12-22T02:33:06.908Z,9.2
2022-12-22T02:34:00.330Z,9.2
2022-12-22T02:35:00.369Z,9.2
2022-12-22T02:36:10.272Z,9.3
2022-12-22T02:37:07.213Z,9.3
2022-12-22T02:38:01.344Z,9.3
2022-12-22T02:39:10.245Z,9.3
2022-12-22T02:40:07.332Z,9.2
2022-12-22T02:41:08.518Z,9.2
2022-12-22T02:42:03.532Z,9.4
2022-12-22T02:43:00.325Z,9.4
2022-12-22T02:44:00.329Z,9.4
2022-12-22T02:45:10.280Z,9.4
2022-12-22T02:46:10.299Z,9.3
2022-12-22T02:47:08.163Z,9.3
2022-12-22T02:48:04.090Z,9.3
2022-12-22T02:49:03.513Z,9.3
2022-12-22T02:50:03.730Z,9.4
2022-12-22T02:51:04.469Z,9.4
2022-12-22T02:52:04.936Z,9.5
2022-12-22T02:53:00.613Z,9.5
2022-12-22T02:54:01.523Z,9.3
2022-12-22T02:55:00.546Z,9.3
2022-12-22T02:56:01.853Z,9.2
2022-12-22T02:57:02.819Z,9.2
2022-12-22T02:58:00.632Z,9.3
2022-12-22T02:59:00.335Z,9.3
2022-12-22T03:00:00.369Z,9.3
2022-12-22T03:01:01.801Z,9.3
2022-12-22T03:02:00.705Z,9.4
2022-12-22T03:03:00.465Z,9.4
2022-12-22T03:04:00.429Z,9.5
2022-12-22T03:05:00.313Z,9.5
2022-12-22T03:06:00.340Z,9.4
2022-12-22T03:07:00.364Z,9.4
2022-12-22T03:08:06.113Z,9.3
2022-12-22T03:09:00.428Z,9.3
2022-12-22T03:10:00.334Z,9.3
2022-12-22T03:11:00.341Z,9.3
2022-12-22T03:12:00.318Z,9.3
2022-12-22T03:13:00.359Z,9.3
2022-12-22T03:14:00.322Z,9.3
2022-12-22T03:15:00.338Z,9.3
2022-12-22T03:16:00.369Z,9.3
2022-12-22T03:17:00.387Z,9.3
2022-12-22T03:18:02.399Z,9.3
2022-12-22T03:19:00.371Z,9.3
2022-12-22T03:20:00.390Z,9.3
2022-12-22T03:21:00.348Z,9.3
2022-12-22T03:22:00.307Z,9.3
2022-12-22T03:23:04.309Z,9.3
2022-12-22T03:24:00.412Z,9.3
2022-12-22T03:25:00.342Z,9.3
2022-12-22T03:26:00.331Z,9.3
2022-12-22T03:27:00.363Z,9.3
2022-12-22T03:28:02.438Z,9.3
2022-12-22T03:29:00.331Z,9.3
2022-12-22T03:30:00.335Z,9.3
2022-12-22T03:31:02.185Z,9.3
2022-12-22T03:32:00.440Z,9.3
2022-12-22T03:33:00.341Z,9.3
2022-12-22T03:34:00.412Z,9.3
2022-12-22T03:35:00.440Z,9.3
2022-12-22T03:36:00.353Z,9.4
2022-12-22T03:37:00.321Z,9.4
2022-12-22T03:38:00.314Z,9.4
2022-12-22T03:39:00.488Z,9.4
2022-12-22T03:40:00.322Z,9.4
2022-12-22T03:41:00.434Z,9.4
2022-12-22T03:42:00.311Z,9.4
2022-12-22T03:43:00.333Z,9.4
2022-12-22T03:44:00.404Z,9.4
2022-12-22T03:45:00.335Z,9.4
2022-12-22T03:46:00.881Z,9.4
2022-12-22T03:47:00.472Z,9.4
2022-12-22T03:48:00.348Z,9.4
2022-12-22T03:49:01.090Z,9.4
2022-12-22T03:50:00.349Z,9.3
2022-12-22T03:51:00.335Z,9.3
2022-12-22T03:52:00.309Z,9.4
2022-12-22T03:53:00.346Z,9.4
2022-12-22T03:54:00.349Z,9.3
2022-12-22T03:55:00.336Z,9.3
2022-12-22T03:56:07.200Z,9.3
2022-12-22T03:57:00.315Z,9.3
2022-12-22T03:58:00.314Z,9.2
2022-12-22T03:59:00.311Z,9.2
2022-12-22T04:00:00.405Z,9.4
2022-12-22T04:01:04.759Z,9.4
2022-12-22T04:02:00.571Z,9.4
2022-12-22T04:03:00.501Z,9.4
2022-12-22T04:04:00.348Z,9.3
2022-12-22T04:05:00.320Z,9.3
2022-12-22T04:06:00.367Z,9.2
2022-12-22T04:07:00.335Z,9.2
2022-12-22T04:08:00.336Z,9.2
2022-12-22T04:09:00.346Z,9.2
2022-12-22T04:10:00.447Z,9.2
2022-12-22T04:11:00.354Z,9.2
2022-12-22T04:12:00.328Z,9.3
2022-12-22T04:13:00.310Z,9.3
2022-12-22T04:14:00.610Z,9.2
2022-12-22T04:15:00.309Z,9.2
2022-12-22T04:16:00.378Z,9.1
2022-12-22T04:17:01.064Z,9.1
2022-12-22T04:18:00.343Z,9.1
2022-12-22T04:19:00.353Z,9.1
2022-12-22T04:20:00.349Z,9.1
2022-12-22T04:21:00.528Z,9.1
2022-12-22T04:22:00.405Z,9.1
2022-12-22T04:23:00.424Z,9.1
2022-12-22T04:24:00.658Z,9.1
2022-12-22T04:25:00.310Z,9.1
2022-12-22T04:26:00.326Z,9.1
2022-12-22T04:27:00.309Z,9.1
2022-12-22T04:28:00.347Z,9.1
2022-12-22T04:29:00.357Z,9.1
2022-12-22T04:30:00.373Z,9.1
2022-12-22T04:31:00.314Z,9.1
2022-12-22T04:32:00.422Z,9.1
2022-12-22T04:33:00.334Z,9.1
2022-12-22T04:34:00.344Z,9.1
2022-12-22T04:35:00.471Z,9.1
2022-12-22T04:36:00.336Z,9.1
2022-12-22T04:37:07.264Z,9.1
2022-12-22T04:38:00.333Z,9.1
2022-12-22T04:39:00.336Z,9.1
2022-12-22T04:40:00.321Z,9.1
2022-12-22T04:41:00.512Z,9.1
2022-12-22T04:42:00.346Z,9.1
2022-12-22T04:43:00.300Z,9.1
2022-12-22T04:44:00.305Z,9.1
2022-12-22T04:45:00.401Z,9.1
2022-12-22T04:46:00.430Z,9.1
2022-12-22T04:47:00.308Z,9.1
2022-12-22T04:48:00.325Z,9.1
2022-12-22T04:49:00.825Z,9.1
2022-12-22T04:50:00.315Z,9.0
2022-12-22T04:51:00.363Z,9.0
2022-12-22T04:52:00.332Z,9.1
2022-12-22T04:53:00.381Z,9.1
2022-12-22T04:54:00.335Z,9.1
2022-12-22T04:55:00.339Z,9.1
2022-12-22T04:56:03.075Z,9.1
2022-12-22T04:57:00.317Z,9.1
2022-12-22T04:58:00.383Z,9.0
2022-12-22T04:59:00.324Z,9.0
2022-12-22T05:00:00.456Z,9.1
2022-12-22T05:01:08.750Z,9.1
2022-12-22T05:02:00.446Z,9.2
2022-12-22T05:03:00.433Z,9.2
2022-12-22T05:04:00.331Z,9.1
2022-12-22T05:05:00.386Z,9.1
2022-12-22T05:06:00.360Z,9.2
2022-12-22T05:07:00.326Z,9.2
2022-12-22T05:08:00.526Z,9.2
2022-12-22T05:09:00.307Z,9.2
2022-12-22T05:10:00.368Z,9.2
2022-12-22T05:11:00.305Z,9.2
2022-12-22T05:12:00.332Z,9.1
2022-12-22T05:13:00.305Z,9.1
2022-12-22T05:14:06.860Z,9.1
2022-12-22T05:15:00.491Z,9.1
2022-12-22T05:16:03.702Z,9.1
2022-12-22T05:17:00.396Z,9.1
2022-12-22T05:18:00.843Z,9.1
2022-12-22T05:19:00.331Z,9.1
2022-12-22T05:20:00.325Z,9.1
2022-12-22T05:21:02.138Z,9.1
2022-12-22T05:22:00.327Z,9.0
2022-12-22T05:23:00.345Z,9.0
2022-12-22T05:24:00.319Z,9.1
2022-12-22T05:25:00.323Z,9.1
2022-12-22T05:26:00.600Z,9.1
2022-12-22T05:27:00.341Z,9.1
2022-12-22T05:28:00.345Z,9.1
2022-12-22T05:29:00.328Z,9.1
2022-12-22T05:30:00.354Z,9.0
2022-12-22T05:31:02.602Z,9.0
2022-12-22T05:32:00.343Z,9.0
2022-12-22T05:33:00.346Z,9.0
2022-12-22T05:34:00.312Z,9.1
2022-12-22T05:35:01.015Z,9.1
2022-12-22T05:36:00.525Z,9.1
2022-12-22T05:37:00.324Z,9.1
2022-12-22T05:38:00.323Z,9.1
2022-12-22T05:39:00.350Z,9.1
2022-12-22T05:40:00.667Z,9.0
2022-12-22T05:41:04.362Z,9.0
2022-12-22T05:42:00.340Z,9.1
2022-12-22T05:43:00.388Z,9.1
2022-12-22T05:44:00.309Z,9.1
2022-12-22T05:45:02.384Z,9.1
2022-12-22T05:46:01.187Z,9.1
2022-12-22T05:47:00.355Z,9.1
2022-12-22T05:48:00.440Z,9.1
2022-12-22T05:49:00.308Z,9.1
2022-12-22T05:50:00.319Z,9.1
2022-12-22T05:51:00.368Z,9.1
2022-12-22T05:52:00.328Z,9.1
2022-12-22T05:53:00.359Z,9.1
2022-12-22T05:54:00.346Z,9.1
2022-12-22T05:55:00.356Z,9.1
2022-12-22T05:56:00.315Z,9.1
2022-12-22T05:57:00.310Z,9.1
2022-12-22T05:58:00.333Z,9.1
2022-12-22T05:59:00.304Z,9.1
2022-12-22T06:00:00.385Z,9.1
2022-12-22T06:01:00.368Z,9.1
2022-12-22T06:02:00.556Z,9.2
2022-12-22T06:03:00.538Z,9.2
2022-12-22T06:04:00.926Z,9.2
2022-12-22T06:05:00.473Z,9.2
2022-12-22T06:06:00.385Z,9.2
2022-12-22T06:07:00.301Z,9.2
2022-12-22T06:08:00.300Z,9.2
2022-12-22T06:09:00.315Z,9.2
2022-12-22T06:10:00.738Z,9.2
2022-12-22T06:11:00.338Z,9.2
2022-12-22T06:12:00.305Z,9.2
2022-12-22T06:13:00.452Z,9.2
2022-12-22T06:14:00.299Z,9.2
2022-12-22T06:15:00.350Z,9.2
2022-12-22T06:16:00.419Z,9.2
2022-12-22T06:17:00.341Z,9.2
2022-12-22T06:18:00.303Z,9.1
2022-12-22T06:19:00.346Z,9.1
2022-12-22T06:20:00.484Z,9.2
2022-12-22T06:21:00.310Z,9.2
2022-12-22T06:22:00.364Z,9.2
2022-12-22T06:23:00.497Z,9.2
2022-12-22T06:24:00.360Z,9.1
2022-12-22T06:25:00.395Z,9.1
2022-12-22T06:26:00.724Z,9.1
2022-12-22T06:27:00.435Z,9.1
2022-12-22T06:28:00.330Z,9.1
2022-12-22T06:29:00.308Z,9.1
2022-12-22T06:30:00.304Z,9.2
2022-12-22T06:31:00.391Z,9.2
2022-12-22T06:32:00.330Z,9.2
2022-12-22T06:33:00.437Z,9.2
2022-12-22T06:34:00.319Z,9.2
2022-12-22T06:35:00.318Z,9.2
2022-12-22T06:36:03.092Z,9.1
2022-12-22T06:37:00.330Z,9.1
2022-12-22T06:38:00.308Z,9.1
2022-12-22T06:39:00.349Z,9.1
2022-12-22T06:40:00.762Z,9.2
2022-12-22T06:41:00.362Z,9.2
2022-12-22T06:42:00.347Z,9.2
2022-12-22T06:43:07.803Z,9.2
2022-12-22T06:44:00.379Z,9.1
2022-12-22T06:45:00.329Z,9.1
2022-12-22T06:46:00.347Z,9.1
2022-12-22T06:47:00.415Z,9.1
2022-12-22T06:48:00.362Z,9.2
2022-12-22T06:49:00.309Z,9.2
2022-12-22T06:50:00.303Z,9.2
2022-12-22T06:51:00.339Z,9.2
2022-12-22T06:52:00.345Z,9.2
2022-12-22T06:53:00.359Z,9.2
2022-12-22T06:54:00.351Z,9.2
2022-12-22T06:55:00.335Z,9.2
2022-12-22T06:56:00.316Z,9.2
2022-12-22T06:57:00.361Z,9.2
2022-12-22T06:58:00.411Z,9.2
2022-12-22T06:59:00.420Z,9.2
2022-12-22T07:00:00.342Z,9.2
2022-12-22T07:01:00.308Z,9.2
2022-12-22T07:02:00.460Z,9.1
2022-12-22T07:03:00.634Z,9.1
2022-12-22T07:04:00.474Z,9.1
2022-12-22T07:05:00.646Z,9.1
2022-12-22T07:06:00.340Z,9.1
2022-12-22T07:07:00.331Z,9.1
2022-12-22T07:08:07.692Z,9.2
2022-12-22T07:09:00.338Z,9.2
2022-12-22T07:10:00.382Z,9.1
2022-12-22T07:11:00.395Z,9.1
2022-12-22T07:12:00.310Z,9.1
2022-12-22T07:13:00.302Z,9.1
2022-12-22T07:14:00.317Z,9.1
2022-12-22T07:15:00.751Z,9.1
2022-12-22T07:16:01.859Z,9.1
2022-12-22T07:17:00.340Z,9.1
2022-12-22T07:18:00.300Z,9.1
2022-12-22T07:19:00.346Z,9.1
2022-12-22T07:20:00.368Z,9.2
2022-12-22T07:21:01.412Z,9.2
2022-12-22T07:22:00.328Z,9.1
2022-12-22T07:23:00.308Z,9.1
2022-12-22T07:24:00.307Z,9.2
2022-12-22T07:25:00.319Z,9.2
2022-12-22T07:26:00.433Z,9.2
2022-12-22T07:27:00.346Z,9.2
2022-12-22T07:28:00.327Z,9.1
2022-12-22T07:29:00.325Z,9.1
2022-12-22T07:30:00.314Z,9.1
2022-12-22T07:31:00.401Z,9.1
2022-12-22T07:32:00.377Z,9.2
2022-12-22T07:33:00.311Z,9.2
2022-12-22T07:34:00.301Z,9.2
2022-12-22T07:35:05.172Z,9.2
2022-12-22T07:36:01.322Z,9.1
2022-12-22T07:37:00.318Z,9.1
2022-12-22T07:38:00.317Z,9.1
2022-12-22T07:39:00.373Z,9.1
2022-12-22T07:40:00.304Z,9.1
2022-12-22T07:41:04.856Z,9.1
2022-12-22T07:42:00.333Z,9.0
2022-12-22T07:43:00.529Z,9.0
2022-12-22T07:44:00.383Z,9.1
2022-12-22T07:45:00.332Z,9.1
2022-12-22T07:46:00.468Z,9.0
2022-12-22T07:47:00.436Z,9.0
2022-12-22T07:48:01.561Z,9.1
2022-12-22T07:49:00.423Z,9.1
2022-12-22T07:50:00.314Z,9.0
2022-12-22T07:51:03.043Z,9.0
2022-12-22T07:52:00.340Z,9.0
2022-12-22T07:53:01.571Z,9.0
2022-12-22T07:54:00.456Z,8.9
2022-12-22T07:55:00.323Z,8.9
2022-12-22T07:56:00.892Z,9.0
2022-12-22T07:57:00.367Z,9.0
2022-12-22T07:58:00.345Z,9.0
2022-12-22T07:59:00.684Z,9.0
2022-12-22T08:00:00.463Z,8.9
2022-12-22T08:01:00.772Z,8.9
2022-12-22T08:02:00.547Z,9.0
2022-12-22T08:03:00.503Z,9.0
2022-12-22T08:04:00.339Z,8.9
2022-12-22T08:05:00.442Z,8.9
2022-12-22T08:06:02.673Z,8.9
2022-12-22T08:07:00.348Z,8.9
2022-12-22T08:08:00.302Z,8.9
2022-12-22T08:09:00.957Z,8.9
2022-12-22T08:10:00.590Z,8.8
2022-12-22T08:11:01.102Z,8.8
2022-12-22T08:12:00.329Z,8.9
2022-12-22T08:13:00.421Z,8.9
2022-12-22T08:14:01.868Z,8.8
2022-12-22T08:15:00.314Z,8.8
2022-12-22T08:16:09.061Z,8.7
2022-12-22T08:17:00.332Z,8.7
2022-12-22T08:18:00.348Z,8.8
2022-12-22T08:19:00.337Z,8.8
2022-12-22T08:20:00.358Z,8.8
2022-12-22T08:21:00.884Z,8.8
2022-12-22T08:22:00.342Z,8.7
2022-12-22T08:23:00.364Z,8.7
2022-12-22T08:24:00.324Z,8.8
2022-12-22T08:25:00.327Z,8.8
2022-12-22T08:26:06.765Z,8.8
2022-12-22T08:27:04.841Z,8.8
2022-12-22T08:28:00.959Z,8.7
2022-12-22T08:29:03.959Z,8.7
2022-12-22T08:30:00.993Z,8.7
2022-12-22T08:31:00.929Z,8.7
2022-12-22T08:32:00.865Z,8.7
2022-12-22T08:34:02.127Z,8.7
2022-12-22T08:35:00.628Z,8.7
2022-12-22T08:36:07.527Z,8.8
2022-12-22T08:37:03.303Z,8.8
2022-12-22T08:38:00.940Z,8.7
2022-12-22T08:39:00.699Z,8.7
2022-12-22T08:40:01.819Z,8.7
2022-12-22T08:41:00.648Z,8.7
2022-12-22T08:42:02.648Z,8.8
2022-12-22T08:43:03.212Z,8.8
2022-12-22T08:44:00.616Z,8.8
2022-12-22T08:45:00.639Z,8.8
2022-12-22T08:46:00.643Z,8.8
2022-12-22T08:47:00.681Z,8.8
2022-12-22T08:48:00.630Z,8.7
2022-12-22T08:49:00.594Z,8.7
2022-12-22T08:50:00.591Z,8.7
2022-12-22T08:51:00.608Z,8.7
2022-12-22T08:52:00.585Z,8.8
2022-12-22T08:53:02.738Z,8.8
2022-12-22T08:54:05.610Z,8.7
2022-12-22T08:55:00.627Z,8.7
2022-12-22T08:56:00.624Z,8.6
2022-12-22T08:57:00.662Z,8.6
2022-12-22T08:58:00.619Z,8.6
2022-12-22T08:59:01.029Z,8.6
2022-12-22T09:00:00.720Z,8.6
2022-12-22T09:01:00.680Z,8.6
2022-12-22T09:02:00.713Z,8.6
2022-12-22T09:03:00.857Z,8.6
2022-12-22T09:04:00.687Z,8.6
2022-12-22T09:05:00.635Z,8.6
2022-12-22T09:06:00.812Z,8.5
2022-12-22T09:07:00.607Z,8.5
2022-12-22T09:08:00.595Z,8.6
2022-12-22T09:09:02.054Z,8.6
2022-12-22T09:10:00.673Z,8.5
2022-12-22T09:11:02.679Z,8.5
2022-12-22T09:12:01.225Z,8.6
2022-12-22T09:13:00.621Z,8.6
2022-12-22T09:14:01.068Z,8.5
2022-12-22T09:15:00.637Z,8.5
2022-12-22T09:16:04.507Z,8.6
2022-12-22T09:17:00.745Z,8.6
2022-12-22T09:18:00.595Z,8.5
2022-12-22T09:19:00.692Z,8.5
2022-12-22T09:20:01.365Z,8.4
2022-12-22T09:21:00.646Z,8.4
2022-12-22T09:22:00.627Z,8.4
2022-12-22T09:23:00.617Z,8.4
2022-12-22T09:24:00.969Z,8.5
2022-12-22T09:25:00.602Z,8.5
2022-12-22T09:26:05.394Z,8.3
2022-12-22T09:27:00.622Z,8.3
2022-12-22T09:28:00.612Z,8.4
2022-12-22T09:29:01.001Z,8.4
2022-12-22T09:30:00.612Z,8.3
2022-12-22T09:31:00.601Z,8.3
2022-12-22T09:32:00.712Z,8.3
2022-12-22T09:33:00.586Z,8.3
2022-12-22T09:34:00.648Z,8.3
2022-12-22T09:35:00.634Z,8.3
2022-12-22T09:36:04.611Z,8.2
2022-12-22T09:37:00.607Z,8.2
2022-12-22T09:38:00.587Z,8.2
2022-12-22T09:39:04.705Z,8.2
2022-12-22T09:40:01.081Z,8.2
2022-12-22T09:41:10.541Z,8.2
2022-12-22T09:42:00.687Z,8.2
2022-12-22T09:43:02.074Z,8.2
2022-12-22T09:44:01.954Z,8.3
2022-12-22T09:45:00.685Z,8.3
2022-12-22T09:46:00.866Z,8.3
2022-12-22T09:47:01.855Z,8.3
2022-12-22T09:48:01.042Z,8.3
2022-12-22T09:49:00.889Z,8.3
2022-12-22T09:50:01.144Z,8.3
2022-12-22T09:51:01.041Z,8.3
2022-12-22T09:52:02.708Z,8.4
2022-12-22T09:53:02.046Z,8.4
2022-12-22T09:54:00.929Z,8.5
2022-12-22T09:55:01.083Z,8.5
2022-12-22T09:56:00.631Z,8.5
2022-12-22T09:57:00.613Z,8.5
2022-12-22T09:58:00.601Z,8.5
2022-12-22T09:59:00.658Z,8.5
2022-12-22T10:00:05.496Z,8.5
2022-12-22T10:01:01.652Z,8.5
2022-12-22T10:02:10.596Z,8.5
2022-12-22T10:03:00.694Z,8.5
2022-12-22T10:04:10.546Z,8.6
2022-12-22T10:05:10.557Z,8.6
2022-12-22T10:06:04.305Z,8.5
2022-12-22T10:07:10.556Z,8.5
2022-12-22T10:08:01.374Z,8.5
2022-12-22T10:09:44.000Z,8.5
2022-12-22T10:10:10.547Z,8.5
2022-12-22T10:11:00.668Z,8.5
2022-12-22T10:12:02.400Z,8.5
2022-12-22T10:13:01.920Z,8.5
2022-12-22T10:14:00.619Z,8.6
2022-12-22T10:15:00.627Z,8.6
2022-12-22T10:16:00.603Z,8.5
2022-12-22T10:17:10.616Z,8.5
2022-12-22T10:18:09.877Z,8.5
2022-12-22T10:19:11.676Z,8.5
2022-12-22T10:20:08.205Z,8.6
2022-12-22T10:21:00.574Z,8.6
2022-12-22T10:22:10.551Z,8.6
2022-12-22T10:23:02.632Z,8.6
2022-12-22T10:24:10.529Z,8.7
2022-12-22T10:25:03.095Z,8.7
2022-12-22T10:26:29.773Z,8.7
2022-12-22T10:27:01.055Z,8.7
2022-12-22T10:28:02.181Z,8.7
2022-12-22T10:29:00.612Z,8.7
2022-12-22T10:30:10.525Z,8.7
2022-12-22T10:31:10.551Z,8.7
2022-12-22T10:32:03.618Z,8.8
2022-12-22T10:33:09.218Z,8.8
2022-12-22T10:34:10.547Z,8.8
2022-12-22T10:35:03.800Z,8.8
2022-12-22T10:36:00.712Z,8.8
2022-12-22T10:37:02.413Z,8.8
2022-12-22T10:38:21.730Z,8.8
2022-12-22T10:39:02.001Z,8.8
2022-12-22T10:40:10.548Z,8.8
2022-12-22T10:41:02.827Z,8.8
2022-12-22T10:42:05.946Z,8.8
2022-12-22T10:43:00.618Z,8.8
2022-12-22T10:44:03.204Z,8.9
2022-12-22T10:45:00.688Z,8.9
2022-12-22T10:46:01.234Z,8.8
2022-12-22T10:47:15.555Z,8.8
2022-12-22T10:48:00.656Z,8.7
2022-12-22T10:49:10.527Z,8.7
2022-12-22T10:51:01.511Z,8.8
2022-12-22T10:52:10.550Z,8.7
2022-12-22T10:53:00.616Z,8.7
2022-12-22T10:54:00.849Z,8.8
2022-12-22T10:55:10.529Z,8.8
2022-12-22T10:56:04.539Z,8.8
2022-12-22T10:57:03.611Z,8.8
2022-12-22T10:58:08.020Z,8.7
2022-12-22T10:59:00.572Z,8.7
2022-12-22T11:00:01.708Z,8.6
2022-12-22T11:01:02.460Z,8.6
2022-12-22T11:02:10.787Z,8.6
2022-12-22T11:03:01.760Z,8.6
2022-12-22T11:04:10.588Z,8.7
2022-12-22T11:05:02.170Z,8.7
2022-12-22T11:06:00.655Z,8.7
2022-12-22T11:07:00.648Z,8.7
2022-12-22T11:08:09.216Z,8.7
2022-12-22T11:09:31.398Z,8.7
2022-12-22T11:10:01.064Z,8.8
2022-12-22T11:11:04.268Z,8.8
2022-12-22T11:12:04.791Z,8.7
2022-12-22T11:13:08.116Z,8.7
2022-12-22T11:14:00.573Z,8.7
2022-12-22T11:15:07.895Z,8.7
2022-12-22T11:16:02.613Z,8.7
2022-12-22T11:17:04.417Z,8.7
2022-12-22T11:18:00.570Z,8.8
2022-12-22T11:19:07.805Z,8.8
2022-12-22T11:20:06.315Z,8.8
2022-12-22T11:21:10.553Z,8.8
2022-12-22T11:22:08.776Z,8.8
2022-12-22T11:23:00.587Z,8.8
2022-12-22T11:24:10.527Z,8.9
2022-12-22T11:25:10.527Z,8.9
2022-12-22T11:26:00.571Z,8.9
2022-12-22T11:27:10.548Z,8.9
2022-12-22T11:28:10.556Z,8.9
2022-12-22T11:29:03.834Z,8.9
2022-12-22T11:30:08.338Z,8.7
2022-12-22T11:31:10.591Z,8.7
2022-12-22T11:32:10.565Z,8.8
2022-12-22T11:33:10.533Z,8.8
2022-12-22T11:34:12.431Z,8.8
2022-12-22T11:35:10.547Z,8.8
2022-12-22T11:36:01.719Z,8.9
2022-12-22T11:37:10.556Z,8.9
2022-12-22T11:38:10.210Z,8.9
2022-12-22T11:39:01.607Z,8.9
2022-12-22T11:40:03.824Z,9.0
2022-12-22T11:41:10.544Z,9.0
2022-12-22T11:42:10.548Z,9.0
2022-12-22T11:43:03.867Z,9.0
2022-12-22T11:44:10.551Z,9.0
2022-12-22T11:45:01.613Z,9.0
2022-12-22T11:46:10.560Z,8.9
2022-12-22T11:47:08.685Z,8.9
2022-12-22T11:48:03.822Z,8.9
2022-12-22T11:49:01.611Z,8.9
2022-12-22T11:50:57.619Z,8.9
2022-12-22T11:51:11.334Z,8.9
2022-12-22T11:52:06.113Z,8.9
2022-12-22T11:53:10.527Z,8.9
2022-12-22T11:54:11.698Z,8.9
2022-12-22T11:55:01.603Z,8.9
2022-12-22T11:56:10.555Z,8.7
2022-12-22T11:57:09.204Z,8.7
2022-12-22T11:58:01.584Z,8.8
2022-12-22T11:59:03.837Z,8.8
2022-12-22T12:00:00.617Z,8.7
2022-12-22T12:01:17.878Z,8.7
2022-12-22T12:02:08.104Z,8.8
2022-12-22T12:03:10.634Z,8.8
2022-12-22T12:04:01.645Z,8.9
2022-12-22T12:05:00.622Z,8.9
2022-12-22T12:06:10.403Z,8.9
2022-12-22T12:07:10.524Z,8.9
2022-12-22T12:08:07.154Z,8.9
2022-12-22T12:09:10.551Z,8.9
2022-12-22T12:10:10.557Z,8.9
2022-12-22T12:11:01.611Z,8.9
2022-12-22T12:12:06.542Z,8.9
2022-12-22T12:13:07.972Z,8.9
2022-12-22T12:14:10.550Z,9.0
2022-12-22T12:15:07.092Z,9.0
2022-12-22T12:16:10.628Z,9.0
2022-12-22T12:17:08.102Z,9.0
2022-12-22T12:18:08.045Z,9.0
2022-12-22T12:19:10.531Z,9.0
2022-12-22T12:20:00.571Z,8.9
2022-12-22T12:21:08.786Z,8.9
2022-12-22T12:22:02.652Z,8.9
2022-12-22T12:23:00.574Z,8.9
2022-12-22T12:24:00.576Z,8.9
2022-12-22T12:25:00.597Z,8.9
2022-12-22T12:26:06.721Z,8.9
2022-12-22T12:27:01.588Z,8.9
2022-12-22T12:28:00.601Z,8.9
2022-12-22T12:29:09.682Z,8.9
2022-12-22T12:30:38.158Z,8.9
2022-12-22T12:31:01.023Z,8.9
2022-12-22T12:32:03.875Z,9.0
2022-12-22T12:33:06.116Z,9.0
2022-12-22T12:34:01.543Z,8.8
2022-12-22T12:35:10.531Z,8.8
2022-12-22T12:36:10.544Z,8.8
2022-12-22T12:37:02.564Z,8.8
2022-12-22T12:38:05.160Z,8.9
2022-12-22T12:39:10.527Z,8.9
2022-12-22T12:40:10.610Z,8.8
2022-12-22T12:41:08.679Z,8.8
2022-12-22T12:42:10.565Z,8.8
2022-12-22T12:43:01.672Z,8.8
2022-12-22T12:44:02.112Z,8.9
2022-12-22T12:45:00.685Z,8.9
2022-12-22T12:46:10.569Z,8.9
2022-12-22T12:47:06.266Z,8.9
2022-12-22T12:48:10.534Z,8.9
2022-12-22T12:49:00.633Z,8.9
2022-12-22T12:50:04.664Z,8.8
2022-12-22T12:51:00.621Z,8.8
2022-12-22T12:52:00.986Z,8.9
2022-12-22T12:53:03.580Z,8.9
2022-12-22T12:54:10.549Z,8.9
2022-12-22T12:55:14.309Z,8.9
2022-12-22T12:56:02.315Z,8.9
2022-12-22T12:57:09.654Z,8.9
2022-12-22T12:58:01.573Z,9.0
2022-12-22T12:59:00.619Z,9.0
2022-12-22T13:00:00.663Z,8.9
2022-12-22T13:01:01.627Z,8.9
2022-12-22T13:02:01.096Z,9.0
2022-12-22T13:03:04.638Z,9.0
2022-12-22T13:04:04.125Z,9.0
2022-12-22T13:05:08.132Z,9.0
2022-12-22T13:06:01.933Z,9.0
2022-12-22T13:07:00.623Z,9.0
2022-12-22T13:08:03.854Z,8.9
2022-12-22T13:09:22.107Z,8.9
2022-12-22T13:10:10.552Z,8.9
2022-12-22T13:11:01.615Z,8.9
2022-12-22T13:12:12.559Z,8.8
2022-12-22T13:13:00.756Z,8.8
2022-12-22T13:14:00.761Z,8.9
2022-12-22T13:15:00.629Z,8.9
2022-12-22T13:16:00.714Z,8.9
2022-12-22T13:17:10.553Z,8.9
2022-12-22T13:18:02.542Z,9.0
2022-12-22T13:19:01.990Z,9.0
2022-12-22T13:20:01.752Z,8.9
2022-12-22T13:21:34.527Z,8.9
2022-12-22T13:22:01.192Z,8.9
2022-12-22T13:23:08.463Z,8.9
2022-12-22T13:24:23.999Z,8.9
2022-12-22T13:25:01.212Z,8.9
2022-12-22T13:26:05.333Z,9.0
2022-12-22T13:27:03.241Z,9.0
2022-12-22T13:28:02.470Z,9.0
2022-12-22T13:29:06.726Z,9.0
2022-12-22T13:30:00.724Z,9.0
2022-12-22T13:31:05.154Z,9.0
2022-12-22T13:32:03.255Z,9.1
2022-12-22T13:33:00.762Z,9.1
2022-12-22T13:34:10.530Z,9.0
2022-12-22T13:35:32.992Z,9.0
2022-12-22T13:36:01.814Z,9.1
2022-12-22T13:37:03.230Z,9.1
2022-12-22T13:38:01.032Z,9.1
2022-12-22T13:39:01.856Z,9.1
2022-12-22T13:40:10.539Z,9.1
2022-12-22T13:41:03.416Z,9.1
2022-12-22T13:42:03.264Z,9.1
2022-12-22T13:43:08.588Z,9.1
2022-12-22T13:44:03.505Z,9.1
2022-12-22T13:45:00.933Z,9.1
2022-12-22T13:46:01.592Z,9.1
2022-12-22T13:47:02.150Z,9.1
2022-12-22T13:48:03.937Z,9.1